createdAt,value
2023-03-23T15:58:56.802Z,100044.42
2023-03-23T16:01:29.611Z,100040.67
2023-03-23T16:04:06.096Z,100039.41
2023-03-23T16:06:35.268Z,100029.02
2023-03-23T16:09:05.087Z,100024.59
2023-03-23T16:11:34.216Z,100015.92
2023-03-23T16:14:02.621Z,100007.04
2023-03-23T16:16:35.043Z,99997.80
2023-03-23T16:19:06.804Z,99989.92
2023-03-23T16:21:36.908Z,99984.46
2023-03-23T16:24:05.547Z,99984.98
2023-03-23T16:26:35.647Z,99984.27
2023-03-23T16:29:23.944Z,99980.90
2023-03-23T16:31:57.561Z,99981.27
2023-03-23T16:34:29.141Z,99976.61
2023-03-23T16:36:57.635Z,99979.79
2023-03-23T16:39:26.416Z,99985.59
2023-03-23T16:41:55.242Z,99983.02
2023-03-23T16:44:24.129Z,99986.45
2023-03-23T16:46:52.871Z,99987.36
2023-03-23T16:49:21.332Z,99987.55
2023-03-23T16:51:51.921Z,99993.18
2023-03-23T16:54:20.432Z,99986.14
2023-03-23T16:56:50.008Z,99980.70
2023-03-23T16:59:18.619Z,99974.07
2023-03-23T17:01:47.246Z,99971.49
2023-03-23T17:04:16.033Z,99978.02
2023-03-23T17:06:46.350Z,99982.65
2023-03-23T17:09:14.997Z,99989.02
2023-03-23T17:11:44.147Z,99988.83
2023-03-23T17:14:13.506Z,99989.67
2023-03-23T17:16:43.297Z,99992.30
2023-03-23T17:19:17.029Z,99986.36
2023-03-23T17:21:45.451Z,99984.77
2023-03-23T17:24:21.417Z,99977.44
2023-03-23T17:26:49.786Z,99973.77
2023-03-23T17:29:18.662Z,99960.23
2023-03-23T17:31:50.715Z,99934.39
2023-03-23T17:34:19.870Z,99923.30
2023-03-23T17:36:51.570Z,99907.78
2023-03-23T17:39:20.527Z,99897.55
2023-03-23T17:41:49.718Z,99885.75
2023-03-23T17:44:18.148Z,99873.83
2023-03-23T17:46:46.640Z,99862.04
2023-03-23T17:49:15.261Z,99852.54
2023-03-23T17:51:44.638Z,99836.80
2023-03-23T17:54:13.892Z,99815.47
2023-03-23T17:56:43.083Z,99802.60
2023-03-23T17:59:12.602Z,99793.86
2023-03-23T18:01:41.081Z,99756.58
2023-03-23T18:04:10.529Z,99694.93
2023-03-23T18:06:38.959Z,99631.55
2023-03-23T18:09:07.541Z,99568.65
2023-03-23T18:11:36.958Z,99508.09
2023-03-23T18:14:05.563Z,99462.73
2023-03-23T18:16:35.884Z,99413.53
2023-03-23T18:19:06.679Z,99398.54
2023-03-23T18:21:35.134Z,99404.38
2023-03-23T18:24:08.520Z,99417.67
2023-03-23T18:26:38.027Z,99425.71
2023-03-23T18:29:06.649Z,99434.88
2023-03-23T18:31:40.254Z,99443.37
2023-03-23T18:34:09.014Z,99446.70
2023-03-23T18:36:38.898Z,99458.55
2023-03-23T18:39:10.730Z,99468.96
2023-03-23T18:41:41.757Z,99468.23
2023-03-23T18:44:10.319Z,99473.36
2023-03-23T18:46:39.212Z,99477.80
2023-03-23T18:49:08.316Z,99478.25
2023-03-23T18:51:38.201Z,99470.66
2023-03-23T18:54:06.863Z,99467.35
2023-03-23T18:56:35.546Z,99460.39
2023-03-23T18:59:03.988Z,99460.10
2023-03-23T19:01:32.599Z,99458.91
2023-03-23T19:04:06.338Z,99449.34
2023-03-23T19:06:36.282Z,99446.05
2023-03-23T19:09:05.201Z,99448.40
2023-03-23T19:11:38.806Z,99445.71
2023-03-23T19:14:07.617Z,99440.31
2023-03-23T19:16:36.428Z,99439.33
2023-03-23T19:19:09.835Z,99442.49
2023-03-23T19:21:40.122Z,99448.76
2023-03-23T19:24:09.254Z,99453.81
2023-03-23T19:26:40.414Z,99456.29
2023-03-23T19:31:46.174Z,99462.93
2023-03-23T19:34:16.124Z,99468.63
2023-03-23T19:36:54.457Z,99469.73
2023-03-23T19:39:25.209Z,99469.57
2023-03-23T19:41:53.907Z,99470.17
2023-03-23T19:44:23.474Z,99465.35
2023-03-23T19:46:52.067Z,99461.56
2023-03-23T19:49:21.142Z,99454.20
2023-03-23T19:51:49.513Z,99449.36
2023-03-23T19:54:17.909Z,99451.30
2023-03-23T19:56:47.248Z,99449.91
2023-03-23T19:59:16.566Z,99445.95
2023-03-23T20:01:45.617Z,99441.25
2023-03-23T20:04:14.088Z,99433.77
2023-03-23T20:06:43.551Z,99433.16
2023-03-23T20:09:12.572Z,99435.02
2023-03-23T20:11:41.453Z,99436.96
2023-03-23T20:14:11.090Z,99432.39
2023-03-23T20:16:40.233Z,99421.45
2023-03-23T20:19:08.961Z,99419.30
2023-03-23T20:21:38.696Z,99413.59
2023-03-23T20:24:08.708Z,99404.89
2023-03-23T20:26:42.493Z,99393.84
2023-03-23T20:29:11.151Z,99390.13
2023-03-23T20:31:41.001Z,99391.85
2023-03-23T20:34:11.771Z,99393.54
2023-03-23T20:36:45.491Z,99396.91
2023-03-23T20:39:19.230Z,99397.90
2023-03-23T20:41:50.945Z,99398.02
2023-03-23T20:44:20.099Z,99397.88
2023-03-23T20:46:52.923Z,99400.70
2023-03-23T20:49:22.251Z,99409.80
2023-03-23T20:51:58.687Z,99394.17
2023-03-23T20:54:27.283Z,99383.30
2023-03-23T20:56:58.823Z,99378.15
2023-03-23T20:59:28.197Z,99372.64
2023-03-23T21:01:56.938Z,99359.80
2023-03-23T21:04:27.682Z,99350.84
2023-03-23T21:06:57.158Z,99339.00
2023-03-23T21:09:25.888Z,99318.85
2023-03-23T21:11:59.287Z,99312.19
2023-03-23T21:14:28.478Z,99303.27
2023-03-23T21:16:58.849Z,99290.08
2023-03-23T21:19:30.545Z,99288.81
2023-03-23T21:22:00.138Z,99281.22
2023-03-23T21:24:29.786Z,99279.89
2023-03-23T21:27:00.374Z,99269.40
2023-03-23T21:29:29.251Z,99266.88
2023-03-23T21:34:30.790Z,99251.85
2023-03-23T21:37:00.020Z,99244.39
2023-03-23T21:39:28.765Z,99223.24
2023-03-23T21:41:59.664Z,99206.08
2023-03-23T21:44:28.230Z,99187.61
2023-03-23T21:46:57.154Z,99164.70
2023-03-23T21:49:26.376Z,99147.27
2023-03-23T21:51:55.212Z,99126.97
2023-03-23T21:54:30.609Z,99110.89
2023-03-23T21:56:59.329Z,99096.08
2023-03-23T21:59:36.033Z,99088.46
2023-03-23T22:02:05.168Z,99082.88
2023-03-23T22:04:33.715Z,99079.91
2023-03-23T22:07:05.348Z,99079.58
2023-03-23T22:09:35.472Z,99077.59
2023-03-23T22:12:04.010Z,99078.48
2023-03-23T22:14:37.123Z,99084.77
2023-03-23T22:17:07.567Z,99084.34
2023-03-23T22:19:37.413Z,99079.35
2023-03-23T22:22:12.400Z,99076.07
2023-03-23T22:24:42.193Z,99067.23
2023-03-23T22:27:11.022Z,99061.29
2023-03-23T22:29:39.528Z,99057.88
2023-03-23T22:32:09.967Z,99048.98
2023-03-23T22:34:38.591Z,99046.48
2023-03-23T22:37:10.638Z,99048.16
2023-03-23T22:39:39.096Z,99047.83
2023-03-23T22:42:09.739Z,99042.94
2023-03-23T22:44:40.200Z,99041.32
2023-03-23T22:47:08.752Z,99045.95
2023-03-23T22:49:39.363Z,99047.97
2023-03-23T22:52:08.082Z,99048.48
2023-03-23T22:54:39.662Z,99052.11
2023-03-23T22:57:08.362Z,99054.36
2023-03-23T22:59:36.957Z,99057.23
2023-03-23T23:02:05.495Z,99054.00
2023-03-23T23:04:34.227Z,99048.09
2023-03-23T23:07:12.511Z,99038.89
2023-03-23T23:09:55.752Z,99030.48
2023-03-23T23:12:24.545Z,99030.52
2023-03-23T23:14:58.844Z,99026.95
2023-03-23T23:17:28.671Z,99028.29
2023-03-23T23:19:57.683Z,99026.93
2023-03-23T23:22:26.767Z,99030.86
2023-03-23T23:24:55.937Z,99040.58
2023-03-23T23:27:24.346Z,99041.39
2023-03-23T23:29:53.937Z,99036.02
2023-03-23T23:32:22.790Z,99037.50
2023-03-23T23:34:55.770Z,99048.77
2023-03-23T23:37:24.240Z,99060.23
2023-03-23T23:39:52.746Z,99067.04
2023-03-23T23:42:23.438Z,99073.80
2023-03-23T23:44:52.520Z,99072.79
2023-03-23T23:47:21.840Z,99073.05
2023-03-23T23:49:51.155Z,99069.52
2023-03-23T23:52:19.636Z,99053.86
2023-03-23T23:54:51.753Z,99039.39
2023-03-23T23:57:20.213Z,99028.40
2023-03-23T23:59:49.152Z,99023.24
